sensor_id;sensor_type;location;lat;lon;timestamp;P1;durP1;ratioP1;P2;durP2;ratioP2
52208;SDS011;38507;53.132;6.394;2023-06-14T00:01:46;9.40;;;1.88;;
52208;SDS011;38507;53.132;6.394;2023-06-14T00:04:12;6.43;;;1.20;;
52208;SDS011;38507;53.132;6.394;2023-06-14T00:06:39;5.22;;;1.42;;
52208;SDS011;38507;53.132;6.394;2023-06-14T00:09:06;6.60;;;1.33;;
52208;SDS011;38507;53.132;6.394;2023-06-14T00:11:33;4.78;;;1.60;;
52208;SDS011;38507;53.132;6.394;2023-06-14T00:13:59;2.65;;;1.33;;
52208;SDS011;38507;53.132;6.394;2023-06-14T00:16:25;5.15;;;1.50;;
52208;SDS011;38507;53.132;6.394;2023-06-14T00:18:50;4.57;;;1.33;;
52208;SDS011;38507;53.132;6.394;2023-06-14T00:21:16;3.85;;;1.38;;
52208;SDS011;38507;53.132;6.394;2023-06-14T00:23:43;8.05;;;1.65;;
52208;SDS011;38507;53.132;6.394;2023-06-14T00:26:08;7.28;;;1.77;;
52208;SDS011;38507;53.132;6.394;2023-06-14T00:28:34;6.65;;;1.38;;
52208;SDS011;38507;53.132;6.394;2023-06-14T00:31:00;5.68;;;1.58;;
52208;SDS011;38507;53.132;6.394;2023-06-14T00:33:25;3.95;;;1.30;;
52208;SDS011;38507;53.132;6.394;2023-06-14T00:35:51;6.43;;;1.30;;
52208;SDS011;38507;53.132;6.394;2023-06-14T00:38:19;6.35;;;1.70;;
52208;SDS011;38507;53.132;6.394;2023-06-14T00:40:45;4.28;;;1.50;;
52208;SDS011;38507;53.132;6.394;2023-06-14T00:43:11;3.95;;;1.35;;
52208;SDS011;38507;53.132;6.394;2023-06-14T00:45:36;7.43;;;2.05;;
52208;SDS011;38507;53.132;6.394;2023-06-14T00:48:03;5.93;;;1.67;;
52208;SDS011;38507;53.132;6.394;2023-06-14T00:50:31;3.55;;;1.05;;
52208;SDS011;38507;53.132;6.394;2023-06-14T00:52:58;4.65;;;1.27;;
52208;SDS011;38507;53.132;6.394;2023-06-14T00:55:26;6.32;;;1.63;;
52208;SDS011;38507;53.132;6.394;2023-06-14T00:57:53;5.15;;;1.40;;
52208;SDS011;38507;53.132;6.394;2023-06-14T01:00:19;6.32;;;1.80;;
52208;SDS011;38507;53.132;6.394;2023-06-14T01:02:45;6.43;;;1.50;;
52208;SDS011;38507;53.132;6.394;2023-06-14T01:05:11;3.35;;;1.52;;
52208;SDS011;38507;53.132;6.394;2023-06-14T01:07:41;7.78;;;2.22;;
52208;SDS011;38507;53.132;6.394;2023-06-14T01:15:52;3.92;;;1.30;;
52208;SDS011;38507;53.132;6.394;2023-06-14T01:18:19;4.60;;;1.58;;
52208;SDS011;38507;53.132;6.394;2023-06-14T01:20:45;6.90;;;1.42;;
52208;SDS011;38507;53.132;6.394;2023-06-14T01:23:19;4.20;;;1.30;;
52208;SDS011;38507;53.132;6.394;2023-06-14T01:25:45;10.00;;;1.70;;
52208;SDS011;38507;53.132;6.394;2023-06-14T01:28:12;5.10;;;1.25;;
52208;SDS011;38507;53.132;6.394;2023-06-14T01:30:40;4.10;;;1.48;;
52208;SDS011;38507;53.132;6.394;2023-06-14T01:33:13;5.80;;;1.35;;
52208;SDS011;38507;53.132;6.394;2023-06-14T01:35:44;6.43;;;1.40;;
52208;SDS011;38507;53.132;6.394;2023-06-14T01:38:10;6.22;;;1.70;;
52208;SDS011;38507;53.132;6.394;2023-06-14T01:40:42;7.05;;;1.95;;
52208;SDS011;38507;53.132;6.394;2023-06-14T01:43:09;4.05;;;1.45;;
52208;SDS011;38507;53.132;6.394;2023-06-14T01:45:38;4.30;;;1.23;;
52208;SDS011;38507;53.132;6.394;2023-06-14T01:48:05;3.88;;;1.58;;
52208;SDS011;38507;53.132;6.394;2023-06-14T01:50:31;6.13;;;1.50;;
52208;SDS011;38507;53.132;6.394;2023-06-14T01:52:57;6.95;;;1.25;;
52208;SDS011;38507;53.132;6.394;2023-06-14T01:55:23;7.05;;;1.60;;
52208;SDS011;38507;53.132;6.394;2023-06-14T01:57:50;8.57;;;1.40;;
52208;SDS011;38507;53.132;6.394;2023-06-14T02:00:19;4.32;;;1.20;;
52208;SDS011;38507;53.132;6.394;2023-06-14T02:02:46;2.65;;;1.30;;
52208;SDS011;38507;53.132;6.394;2023-06-14T02:05:12;2.17;;;1.10;;
52208;SDS011;38507;53.132;6.394;2023-06-14T02:07:38;2.80;;;1.35;;
52208;SDS011;38507;53.132;6.394;2023-06-14T02:10:04;4.50;;;1.50;;
52208;SDS011;38507;53.132;6.394;2023-06-14T02:12:30;6.25;;;1.50;;
52208;SDS011;38507;53.132;6.394;2023-06-14T02:14:56;2.78;;;1.25;;
52208;SDS011;38507;53.132;6.394;2023-06-14T02:17:23;7.35;;;1.48;;
52208;SDS011;38507;53.132;6.394;2023-06-14T02:19:49;4.60;;;1.40;;
52208;SDS011;38507;53.132;6.394;2023-06-14T02:22:15;3.95;;;1.33;;
52208;SDS011;38507;53.132;6.394;2023-06-14T02:24:42;3.72;;;1.33;;
52208;SDS011;38507;53.132;6.394;2023-06-14T02:27:07;2.97;;;1.25;;
52208;SDS011;38507;53.132;6.394;2023-06-14T02:29:38;5.20;;;1.40;;
52208;SDS011;38507;53.132;6.394;2023-06-14T02:32:04;4.22;;;1.58;;
52208;SDS011;38507;53.132;6.394;2023-06-14T02:34:32;5.28;;;1.77;;
52208;SDS011;38507;53.132;6.394;2023-06-14T02:36:59;2.97;;;1.50;;
52208;SDS011;38507;53.132;6.394;2023-06-14T02:39:24;7.47;;;1.73;;
52208;SDS011;38507;53.132;6.394;2023-06-14T02:41:50;5.68;;;1.45;;
52208;SDS011;38507;53.132;6.394;2023-06-14T02:44:19;4.18;;;1.48;;
52208;SDS011;38507;53.132;6.394;2023-06-14T02:46:44;3.50;;;1.50;;
52208;SDS011;38507;53.132;6.394;2023-06-14T02:49:13;8.30;;;1.80;;
52208;SDS011;38507;53.132;6.394;2023-06-14T02:51:38;5.78;;;1.75;;
52208;SDS011;38507;53.132;6.394;2023-06-14T02:54:05;4.57;;;1.30;;
52208;SDS011;38507;53.132;6.394;2023-06-14T02:56:30;5.75;;;1.95;;
52208;SDS011;38507;53.132;6.394;2023-06-14T02:58:56;6.40;;;1.38;;
52208;SDS011;38507;53.132;6.394;2023-06-14T03:01:22;9.95;;;1.65;;
52208;SDS011;38507;53.132;6.394;2023-06-14T03:03:48;3.22;;;1.30;;
52208;SDS011;38507;53.132;6.394;2023-06-14T03:06:13;4.97;;;1.65;;
52208;SDS011;38507;53.132;6.394;2023-06-14T03:08:41;6.43;;;1.88;;
52208;SDS011;38507;53.132;6.394;2023-06-14T03:11:07;6.82;;;1.58;;
52208;SDS011;38507;53.132;6.394;2023-06-14T03:13:36;6.90;;;1.60;;
52208;SDS011;38507;53.132;6.394;2023-06-14T03:16:03;5.70;;;1.85;;
52208;SDS011;38507;53.132;6.394;2023-06-14T03:18:30;6.15;;;1.67;;
52208;SDS011;38507;53.132;6.394;2023-06-14T03:21:01;7.65;;;1.65;;
52208;SDS011;38507;53.132;6.394;2023-06-14T03:23:27;4.63;;;1.70;;
52208;SDS011;38507;53.132;6.394;2023-06-14T03:25:53;5.35;;;1.83;;
52208;SDS011;38507;53.132;6.394;2023-06-14T03:28:19;3.63;;;1.60;;
52208;SDS011;38507;53.132;6.394;2023-06-14T03:30:45;7.95;;;1.88;;
52208;SDS011;38507;53.132;6.394;2023-06-14T03:33:10;8.43;;;2.10;;
52208;SDS011;38507;53.132;6.394;2023-06-14T03:35:36;5.93;;;1.95;;
52208;SDS011;38507;53.132;6.394;2023-06-14T03:38:02;7.72;;;1.92;;
52208;SDS011;38507;53.132;6.394;2023-06-14T03:40:28;4.57;;;2.00;;
52208;SDS011;38507;53.132;6.394;2023-06-14T03:42:54;6.57;;;1.80;;
52208;SDS011;38507;53.132;6.394;2023-06-14T03:45:20;4.57;;;1.60;;
52208;SDS011;38507;53.132;6.394;2023-06-14T03:47:46;8.80;;;2.03;;
52208;SDS011;38507;53.132;6.394;2023-06-14T03:50:12;6.60;;;2.40;;
52208;SDS011;38507;53.132;6.394;2023-06-14T03:52:38;10.02;;;1.95;;
52208;SDS011;38507;53.132;6.394;2023-06-14T03:55:04;6.47;;;1.80;;
52208;SDS011;38507;53.132;6.394;2023-06-14T03:57:30;9.52;;;2.20;;
52208;SDS011;38507;53.132;6.394;2023-06-14T03:59:56;6.63;;;1.88;;
52208;SDS011;38507;53.132;6.394;2023-06-14T04:02:22;6.88;;;1.92;;
52208;SDS011;38507;53.132;6.394;2023-06-14T04:04:48;4.78;;;1.75;;
52208;SDS011;38507;53.132;6.394;2023-06-14T04:07:14;6.75;;;2.17;;
52208;SDS011;38507;53.132;6.394;2023-06-14T04:09:40;6.00;;;1.90;;
52208;SDS011;38507;53.132;6.394;2023-06-14T04:12:06;5.45;;;1.70;;
52208;SDS011;38507;53.132;6.394;2023-06-14T04:14:36;4.03;;;1.92;;
52208;SDS011;38507;53.132;6.394;2023-06-14T04:17:02;6.85;;;2.13;;
52208;SDS011;38507;53.132;6.394;2023-06-14T04:19:28;7.25;;;2.35;;
52208;SDS011;38507;53.132;6.394;2023-06-14T04:21:54;4.50;;;1.85;;
52208;SDS011;38507;53.132;6.394;2023-06-14T04:24:20;7.82;;;2.53;;
52208;SDS011;38507;53.132;6.394;2023-06-14T04:26:46;5.68;;;2.03;;
52208;SDS011;38507;53.132;6.394;2023-06-14T04:29:13;8.38;;;2.50;;
52208;SDS011;38507;53.132;6.394;2023-06-14T04:31:41;10.68;;;2.42;;
52208;SDS011;38507;53.132;6.394;2023-06-14T04:34:10;5.75;;;2.63;;
52208;SDS011;38507;53.132;6.394;2023-06-14T04:36:41;6.68;;;2.00;;
52208;SDS011;38507;53.132;6.394;2023-06-14T04:39:17;6.25;;;2.20;;
52208;SDS011;38507;53.132;6.394;2023-06-14T04:41:46;9.10;;;2.30;;
52208;SDS011;38507;53.132;6.394;2023-06-14T04:44:12;8.15;;;2.58;;
52208;SDS011;38507;53.132;6.394;2023-06-14T04:46:39;7.18;;;2.20;;
52208;SDS011;38507;53.132;6.394;2023-06-14T04:49:17;6.38;;;2.70;;
52208;SDS011;38507;53.132;6.394;2023-06-14T04:51:43;6.15;;;2.05;;
52208;SDS011;38507;53.132;6.394;2023-06-14T04:54:10;6.78;;;2.13;;
52208;SDS011;38507;53.132;6.394;2023-06-14T04:56:40;8.20;;;2.35;;
52208;SDS011;38507;53.132;6.394;2023-06-14T04:59:07;4.38;;;2.13;;
52208;SDS011;38507;53.132;6.394;2023-06-14T05:01:34;6.85;;;2.80;;
52208;SDS011;38507;53.132;6.394;2023-06-14T05:04:00;6.15;;;2.25;;
52208;SDS011;38507;53.132;6.394;2023-06-14T05:06:26;5.10;;;2.50;;
52208;SDS011;38507;53.132;6.394;2023-06-14T05:08:52;9.60;;;2.40;;
52208;SDS011;38507;53.132;6.394;2023-06-14T05:11:18;7.45;;;2.40;;
52208;SDS011;38507;53.132;6.394;2023-06-14T05:13:44;8.52;;;2.47;;
52208;SDS011;38507;53.132;6.394;2023-06-14T05:16:13;5.13;;;2.30;;
52208;SDS011;38507;53.132;6.394;2023-06-14T05:18:41;10.40;;;2.58;;
52208;SDS011;38507;53.132;6.394;2023-06-14T05:21:06;10.93;;;2.58;;
52208;SDS011;38507;53.132;6.394;2023-06-14T05:23:32;9.68;;;2.20;;
52208;SDS011;38507;53.132;6.394;2023-06-14T05:25:58;5.15;;;2.30;;
52208;SDS011;38507;53.132;6.394;2023-06-14T05:28:23;9.30;;;2.40;;
52208;SDS011;38507;53.132;6.394;2023-06-14T05:30:51;12.00;;;2.92;;
52208;SDS011;38507;53.132;6.394;2023-06-14T05:33:17;7.40;;;2.50;;
52208;SDS011;38507;53.132;6.394;2023-06-14T05:35:42;9.35;;;2.55;;
52208;SDS011;38507;53.132;6.394;2023-06-14T05:38:08;5.70;;;2.20;;
52208;SDS011;38507;53.132;6.394;2023-06-14T05:40:33;7.28;;;2.00;;
52208;SDS011;38507;53.132;6.394;2023-06-14T05:42:59;7.03;;;2.58;;
52208;SDS011;38507;53.132;6.394;2023-06-14T05:45:25;10.85;;;2.92;;
52208;SDS011;38507;53.132;6.394;2023-06-14T05:47:50;11.02;;;2.50;;
52208;SDS011;38507;53.132;6.394;2023-06-14T05:50:17;6.07;;;2.38;;
52208;SDS011;38507;53.132;6.394;2023-06-14T05:52:43;4.50;;;2.58;;
52208;SDS011;38507;53.132;6.394;2023-06-14T05:55:08;5.45;;;2.17;;
52208;SDS011;38507;53.132;6.394;2023-06-14T05:57:37;9.30;;;2.40;;
52208;SDS011;38507;53.132;6.394;2023-06-14T06:00:02;10.82;;;2.50;;
52208;SDS011;38507;53.132;6.394;2023-06-14T06:02:35;8.18;;;2.60;;
52208;SDS011;38507;53.132;6.394;2023-06-14T06:05:01;8.18;;;3.10;;
52208;SDS011;38507;53.132;6.394;2023-06-14T06:07:27;7.53;;;2.47;;
52208;SDS011;38507;53.132;6.394;2023-06-14T06:09:53;5.05;;;2.47;;
52208;SDS011;38507;53.132;6.394;2023-06-14T06:12:18;6.38;;;2.10;;
52208;SDS011;38507;53.132;6.394;2023-06-14T06:14:44;12.02;;;2.90;;
52208;SDS011;38507;53.132;6.394;2023-06-14T06:17:10;9.77;;;3.05;;
52208;SDS011;38507;53.132;6.394;2023-06-14T06:19:35;4.80;;;2.13;;
52208;SDS011;38507;53.132;6.394;2023-06-14T06:22:01;8.32;;;2.53;;
52208;SDS011;38507;53.132;6.394;2023-06-14T06:24:30;8.68;;;2.45;;
52208;SDS011;38507;53.132;6.394;2023-06-14T06:26:55;12.73;;;2.45;;
52208;SDS011;38507;53.132;6.394;2023-06-14T06:29:21;5.78;;;2.15;;
52208;SDS011;38507;53.132;6.394;2023-06-14T06:31:46;12.65;;;2.53;;
52208;SDS011;38507;53.132;6.394;2023-06-14T06:34:12;9.77;;;2.15;;
52208;SDS011;38507;53.132;6.394;2023-06-14T06:36:38;38.50;;;5.07;;
52208;SDS011;38507;53.132;6.394;2023-06-14T06:39:03;17.00;;;2.65;;
52208;SDS011;38507;53.132;6.394;2023-06-14T06:41:35;9.23;;;2.20;;
52208;SDS011;38507;53.132;6.394;2023-06-14T06:44:07;6.40;;;2.67;;
52208;SDS011;38507;53.132;6.394;2023-06-14T06:46:33;10.50;;;2.50;;
52208;SDS011;38507;53.132;6.394;2023-06-14T06:49:00;4.30;;;1.90;;
52208;SDS011;38507;53.132;6.394;2023-06-14T06:51:25;4.45;;;1.90;;
52208;SDS011;38507;53.132;6.394;2023-06-14T06:53:54;6.18;;;2.20;;
52208;SDS011;38507;53.132;6.394;2023-06-14T06:56:20;5.30;;;2.08;;
52208;SDS011;38507;53.132;6.394;2023-06-14T06:58:48;6.43;;;2.10;;
52208;SDS011;38507;53.132;6.394;2023-06-14T07:01:15;13.85;;;2.53;;
52208;SDS011;38507;53.132;6.394;2023-06-14T07:03:41;5.13;;;2.05;;
52208;SDS011;38507;53.132;6.394;2023-06-14T07:06:07;13.32;;;2.00;;
52208;SDS011;38507;53.132;6.394;2023-06-14T07:08:32;5.93;;;2.45;;
52208;SDS011;38507;53.132;6.394;2023-06-14T07:10:58;5.15;;;2.20;;
52208;SDS011;38507;53.132;6.394;2023-06-14T07:13:24;9.98;;;2.33;;
52208;SDS011;38507;53.132;6.394;2023-06-14T07:15:49;10.10;;;2.05;;
52208;SDS011;38507;53.132;6.394;2023-06-14T07:18:18;7.43;;;1.80;;
52208;SDS011;38507;53.132;6.394;2023-06-14T07:20:44;3.95;;;1.70;;
52208;SDS011;38507;53.132;6.394;2023-06-14T07:23:09;10.82;;;3.17;;
52208;SDS011;38507;53.132;6.394;2023-06-14T07:25:35;4.30;;;1.85;;
52208;SDS011;38507;53.132;6.394;2023-06-14T07:28:01;4.30;;;1.73;;
52208;SDS011;38507;53.132;6.394;2023-06-14T07:30:27;5.60;;;1.70;;
52208;SDS011;38507;53.132;6.394;2023-06-14T07:32:54;8.45;;;2.10;;
52208;SDS011;38507;53.132;6.394;2023-06-14T07:35:21;7.72;;;1.77;;
52208;SDS011;38507;53.132;6.394;2023-06-14T07:37:46;6.70;;;1.77;;
52208;SDS011;38507;53.132;6.394;2023-06-14T07:40:12;6.53;;;1.92;;
52208;SDS011;38507;53.132;6.394;2023-06-14T07:42:38;6.85;;;1.92;;
52208;SDS011;38507;53.132;6.394;2023-06-14T07:45:04;4.65;;;1.45;;
52208;SDS011;38507;53.132;6.394;2023-06-14T07:47:31;4.53;;;1.90;;
52208;SDS011;38507;53.132;6.394;2023-06-14T07:49:57;4.60;;;1.75;;
52208;SDS011;38507;53.132;6.394;2023-06-14T07:52:22;5.00;;;1.70;;
52208;SDS011;38507;53.132;6.394;2023-06-14T07:54:48;11.77;;;2.08;;
52208;SDS011;38507;53.132;6.394;2023-06-14T07:57:14;8.05;;;1.80;;
52208;SDS011;38507;53.132;6.394;2023-06-14T07:59:39;4.38;;;1.70;;
52208;SDS011;38507;53.132;6.394;2023-06-14T08:02:05;6.13;;;1.77;;
52208;SDS011;38507;53.132;6.394;2023-06-14T08:04:31;6.03;;;1.75;;
52208;SDS011;38507;53.132;6.394;2023-06-14T08:06:58;4.30;;;1.63;;
52208;SDS011;38507;53.132;6.394;2023-06-14T08:09:24;8.48;;;1.73;;
52208;SDS011;38507;53.132;6.394;2023-06-14T08:11:50;5.97;;;1.80;;
52208;SDS011;38507;53.132;6.394;2023-06-14T08:14:16;6.80;;;1.52;;
52208;SDS011;38507;53.132;6.394;2023-06-14T08:16:41;6.97;;;1.70;;
52208;SDS011;38507;53.132;6.394;2023-06-14T08:19:07;5.50;;;1.85;;
52208;SDS011;38507;53.132;6.394;2023-06-14T08:21:33;10.80;;;2.10;;
52208;SDS011;38507;53.132;6.394;2023-06-14T08:24:01;10.82;;;1.90;;
52208;SDS011;38507;53.132;6.394;2023-06-14T08:26:28;18.52;;;2.58;;
52208;SDS011;38507;53.132;6.394;2023-06-14T08:28:54;12.82;;;2.67;;
52208;SDS011;38507;53.132;6.394;2023-06-14T08:31:21;6.03;;;1.60;;
52208;SDS011;38507;53.132;6.394;2023-06-14T08:33:46;12.88;;;1.95;;
52208;SDS011;38507;53.132;6.394;2023-06-14T08:36:12;2.92;;;1.75;;
52208;SDS011;38507;53.132;6.394;2023-06-14T08:38:38;7.13;;;1.85;;
52208;SDS011;38507;53.132;6.394;2023-06-14T08:41:04;6.38;;;2.25;;
52208;SDS011;38507;53.132;6.394;2023-06-14T08:43:34;21.10;;;3.65;;
52208;SDS011;38507;53.132;6.394;2023-06-14T08:46:03;11.48;;;2.17;;
52208;SDS011;38507;53.132;6.394;2023-06-14T08:48:31;3.47;;;1.40;;
52208;SDS011;38507;53.132;6.394;2023-06-14T08:51:01;4.72;;;1.48;;
52208;SDS011;38507;53.132;6.394;2023-06-14T08:53:30;4.60;;;1.40;;
52208;SDS011;38507;53.132;6.394;2023-06-14T08:55:59;5.82;;;1.30;;
52208;SDS011;38507;53.132;6.394;2023-06-14T08:58:27;9.77;;;1.85;;
52208;SDS011;38507;53.132;6.394;2023-06-14T09:00:56;6.80;;;1.65;;
52208;SDS011;38507;53.132;6.394;2023-06-14T09:03:22;5.63;;;1.63;;
52208;SDS011;38507;53.132;6.394;2023-06-14T09:05:53;8.07;;;2.33;;
52208;SDS011;38507;53.132;6.394;2023-06-14T09:08:19;4.38;;;1.60;;
52208;SDS011;38507;53.132;6.394;2023-06-14T09:10:47;8.02;;;1.83;;
52208;SDS011;38507;53.132;6.394;2023-06-14T09:13:12;12.40;;;1.95;;
52208;SDS011;38507;53.132;6.394;2023-06-14T09:15:38;9.38;;;1.75;;
52208;SDS011;38507;53.132;6.394;2023-06-14T09:18:04;7.20;;;1.70;;
52208;SDS011;38507;53.132;6.394;2023-06-14T09:20:31;7.10;;;1.88;;
52208;SDS011;38507;53.132;6.394;2023-06-14T09:22:57;3.97;;;1.55;;
52208;SDS011;38507;53.132;6.394;2023-06-14T09:25:24;5.25;;;1.65;;
52208;SDS011;38507;53.132;6.394;2023-06-14T09:27:51;5.65;;;1.60;;
52208;SDS011;38507;53.132;6.394;2023-06-14T09:30:19;7.93;;;1.48;;
52208;SDS011;38507;53.132;6.394;2023-06-14T09:32:45;4.78;;;1.60;;
52208;SDS011;38507;53.132;6.394;2023-06-14T09:35:11;4.43;;;1.35;;
52208;SDS011;38507;53.132;6.394;2023-06-14T09:37:37;5.47;;;1.70;;
52208;SDS011;38507;53.132;6.394;2023-06-14T09:40:04;6.60;;;1.48;;
52208;SDS011;38507;53.132;6.394;2023-06-14T09:42:30;7.55;;;1.60;;
52208;SDS011;38507;53.132;6.394;2023-06-14T09:44:56;5.82;;;1.60;;
52208;SDS011;38507;53.132;6.394;2023-06-14T09:47:25;7.93;;;1.50;;
52208;SDS011;38507;53.132;6.394;2023-06-14T09:49:51;13.85;;;1.50;;
52208;SDS011;38507;53.132;6.394;2023-06-14T09:52:20;4.93;;;1.60;;
52208;SDS011;38507;53.132;6.394;2023-06-14T09:54:47;17.15;;;2.40;;
52208;SDS011;38507;53.132;6.394;2023-06-14T09:57:14;14.00;;;2.50;;
52208;SDS011;38507;53.132;6.394;2023-06-14T09:59:48;9.25;;;2.20;;
52208;SDS011;38507;53.132;6.394;2023-06-14T10:02:28;11.60;;;1.75;;
52208;SDS011;38507;53.132;6.394;2023-06-14T10:05:06;12.57;;;2.00;;
52208;SDS011;38507;53.132;6.394;2023-06-14T10:07:43;6.30;;;1.75;;
52208;SDS011;38507;53.132;6.394;2023-06-14T10:10:15;8.75;;;1.60;;
52208;SDS011;38507;53.132;6.394;2023-06-14T10:12:41;9.68;;;1.65;;
52208;SDS011;38507;53.132;6.394;2023-06-14T10:15:08;3.65;;;1.50;;
52208;SDS011;38507;53.132;6.394;2023-06-14T10:17:43;6.30;;;1.65;;
52208;SDS011;38507;53.132;6.394;2023-06-14T10:23:07;13.98;;;1.92;;
52208;SDS011;38507;53.132;6.394;2023-06-14T10:25:44;9.02;;;1.48;;
52208;SDS011;38507;53.132;6.394;2023-06-14T10:28:16;15.98;;;1.95;;
52208;SDS011;38507;53.132;6.394;2023-06-14T10:36:23;8.85;;;2.00;;
52208;SDS011;38507;53.132;6.394;2023-06-14T10:41:26;3.92;;;1.40;;
52208;SDS011;38507;53.132;6.394;2023-06-14T10:44:10;5.47;;;1.88;;
52208;SDS011;38507;53.132;6.394;2023-06-14T10:46:37;5.63;;;1.40;;
52208;SDS011;38507;53.132;6.394;2023-06-14T10:49:03;6.65;;;1.80;;
52208;SDS011;38507;53.132;6.394;2023-06-14T10:51:29;12.52;;;2.05;;
52208;SDS011;38507;53.132;6.394;2023-06-14T10:53:56;7.00;;;1.88;;
52208;SDS011;38507;53.132;6.394;2023-06-14T10:56:26;15.63;;;1.70;;
52208;SDS011;38507;53.132;6.394;2023-06-14T10:58:53;16.60;;;1.80;;
52208;SDS011;38507;53.132;6.394;2023-06-14T11:01:29;4.10;;;1.50;;
52208;SDS011;38507;53.132;6.394;2023-06-14T11:04:10;7.82;;;1.48;;
52208;SDS011;38507;53.132;6.394;2023-06-14T11:06:54;6.07;;;1.33;;
52208;SDS011;38507;53.132;6.394;2023-06-14T11:10:33;4.65;;;1.63;;
52208;SDS011;38507;53.132;6.394;2023-06-14T11:12:43;6.65;;;1.20;;
52208;SDS011;38507;53.132;6.394;2023-06-14T11:15:12;4.47;;;1.20;;
52208;SDS011;38507;53.132;6.394;2023-06-14T11:17:38;6.80;;;1.40;;
52208;SDS011;38507;53.132;6.394;2023-06-14T11:20:07;9.23;;;1.98;;
52208;SDS011;38507;53.132;6.394;2023-06-14T11:22:41;7.13;;;1.50;;
52208;SDS011;38507;53.132;6.394;2023-06-14T11:25:10;5.85;;;1.52;;
52208;SDS011;38507;53.132;6.394;2023-06-14T11:27:36;4.85;;;1.45;;
52208;SDS011;38507;53.132;6.394;2023-06-14T11:30:02;5.50;;;1.30;;
52208;SDS011;38507;53.132;6.394;2023-06-14T11:32:31;4.97;;;1.30;;
52208;SDS011;38507;53.132;6.394;2023-06-14T11:34:56;6.35;;;1.40;;
52208;SDS011;38507;53.132;6.394;2023-06-14T11:37:23;3.35;;;1.30;;
52208;SDS011;38507;53.132;6.394;2023-06-14T11:39:51;6.32;;;1.50;;
52208;SDS011;38507;53.132;6.394;2023-06-14T11:42:17;1.92;;;1.02;;
52208;SDS011;38507;53.132;6.394;2023-06-14T11:44:45;4.43;;;1.50;;
52208;SDS011;38507;53.132;6.394;2023-06-14T11:47:11;2.30;;;1.15;;
52208;SDS011;38507;53.132;6.394;2023-06-14T11:49:37;8.32;;;1.27;;
52208;SDS011;38507;53.132;6.394;2023-06-14T11:52:03;6.22;;;1.30;;
52208;SDS011;38507;53.132;6.394;2023-06-14T11:54:31;7.88;;;1.48;;
52208;SDS011;38507;53.132;6.394;2023-06-14T11:56:57;2.70;;;1.00;;
52208;SDS011;38507;53.132;6.394;2023-06-14T11:59:23;1.67;;;0.95;;
52208;SDS011;38507;53.132;6.394;2023-06-14T12:01:50;9.43;;;1.00;;
52208;SDS011;38507;53.132;6.394;2023-06-14T12:04:28;3.85;;;0.80;;
52208;SDS011;38507;53.132;6.394;2023-06-14T12:06:53;5.25;;;1.45;;
52208;SDS011;38507;53.132;6.394;2023-06-14T12:09:20;4.40;;;1.10;;
52208;SDS011;38507;53.132;6.394;2023-06-14T12:11:51;6.07;;;1.20;;
52208;SDS011;38507;53.132;6.394;2023-06-14T12:14:29;5.43;;;1.25;;
52208;SDS011;38507;53.132;6.394;2023-06-14T12:17:04;2.38;;;1.00;;
52208;SDS011;38507;53.132;6.394;2023-06-14T12:19:33;4.68;;;0.90;;
52208;SDS011;38507;53.132;6.394;2023-06-14T12:22:09;6.35;;;1.30;;
52208;SDS011;38507;53.132;6.394;2023-06-14T12:24:35;3.13;;;0.90;;
52208;SDS011;38507;53.132;6.394;2023-06-14T12:27:01;2.90;;;1.00;;
52208;SDS011;38507;53.132;6.394;2023-06-14T12:29:30;5.22;;;1.40;;
52208;SDS011;38507;53.132;6.394;2023-06-14T12:31:56;4.63;;;0.88;;
52208;SDS011;38507;53.132;6.394;2023-06-14T12:34:28;3.55;;;0.93;;
52208;SDS011;38507;53.132;6.394;2023-06-14T12:36:54;6.97;;;1.05;;
52208;SDS011;38507;53.132;6.394;2023-06-14T12:39:20;4.40;;;0.95;;
52208;SDS011;38507;53.132;6.394;2023-06-14T12:41:47;2.78;;;1.20;;
52208;SDS011;38507;53.132;6.394;2023-06-14T12:44:13;5.25;;;1.17;;
52208;SDS011;38507;53.132;6.394;2023-06-14T12:46:41;1.67;;;0.85;;
52208;SDS011;38507;53.132;6.394;2023-06-14T12:49:08;4.55;;;1.35;;
52208;SDS011;38507;53.132;6.394;2023-06-14T12:51:35;3.67;;;1.00;;
52208;SDS011;38507;53.132;6.394;2023-06-14T12:54:01;2.65;;;0.93;;
52208;SDS011;38507;53.132;6.394;2023-06-14T12:56:27;3.85;;;0.90;;
52208;SDS011;38507;53.132;6.394;2023-06-14T12:58:53;5.28;;;1.30;;
52208;SDS011;38507;53.132;6.394;2023-06-14T13:01:19;2.28;;;1.00;;
52208;SDS011;38507;53.132;6.394;2023-06-14T13:03:48;3.28;;;1.17;;
52208;SDS011;38507;53.132;6.394;2023-06-14T13:06:15;5.25;;;1.10;;
52208;SDS011;38507;53.132;6.394;2023-06-14T13:08:41;6.38;;;1.80;;
52208;SDS011;38507;53.132;6.394;2023-06-14T13:11:07;2.58;;;1.15;;
52208;SDS011;38507;53.132;6.394;2023-06-14T13:13:32;3.28;;;1.08;;
52208;SDS011;38507;53.132;6.394;2023-06-14T13:15:58;4.50;;;1.60;;
52208;SDS011;38507;53.132;6.394;2023-06-14T13:18:24;3.33;;;0.98;;
52208;SDS011;38507;53.132;6.394;2023-06-14T13:20:49;3.22;;;1.00;;
52208;SDS011;38507;53.132;6.394;2023-06-14T13:23:16;3.60;;;1.38;;
52208;SDS011;38507;53.132;6.394;2023-06-14T13:25:42;4.72;;;1.27;;
52208;SDS011;38507;53.132;6.394;2023-06-14T13:28:08;5.00;;;1.08;;
52208;SDS011;38507;53.132;6.394;2023-06-14T13:30:34;2.53;;;1.02;;
52208;SDS011;38507;53.132;6.394;2023-06-14T13:33:00;9.57;;;1.10;;
52208;SDS011;38507;53.132;6.394;2023-06-14T13:35:26;5.57;;;0.82;;
52208;SDS011;38507;53.132;6.394;2023-06-14T13:37:52;4.45;;;1.08;;
52208;SDS011;38507;53.132;6.394;2023-06-14T13:40:18;5.82;;;1.30;;
52208;SDS011;38507;53.132;6.394;2023-06-14T13:42:45;8.50;;;1.33;;
52208;SDS011;38507;53.132;6.394;2023-06-14T13:45:12;2.92;;;1.10;;
52208;SDS011;38507;53.132;6.394;2023-06-14T13:47:38;4.32;;;1.10;;
52208;SDS011;38507;53.132;6.394;2023-06-14T13:50:04;4.97;;;1.67;;
52208;SDS011;38507;53.132;6.394;2023-06-14T13:52:31;3.63;;;1.17;;
52208;SDS011;38507;53.132;6.394;2023-06-14T13:54:57;5.13;;;1.10;;
52208;SDS011;38507;53.132;6.394;2023-06-14T13:57:22;4.95;;;1.30;;
52208;SDS011;38507;53.132;6.394;2023-06-14T13:59:48;3.70;;;1.00;;
52208;SDS011;38507;53.132;6.394;2023-06-14T14:02:14;17.50;;;1.80;;
52208;SDS011;38507;53.132;6.394;2023-06-14T14:04:40;5.60;;;1.10;;
52208;SDS011;38507;53.132;6.394;2023-06-14T14:07:07;7.47;;;1.10;;
52208;SDS011;38507;53.132;6.394;2023-06-14T14:09:33;3.42;;;1.00;;
52208;SDS011;38507;53.132;6.394;2023-06-14T14:12:03;5.38;;;1.15;;
52208;SDS011;38507;53.132;6.394;2023-06-14T14:14:30;4.45;;;1.38;;
52208;SDS011;38507;53.132;6.394;2023-06-14T14:16:57;16.20;;;1.40;;
52208;SDS011;38507;53.132;6.394;2023-06-14T14:19:23;1.80;;;0.90;;
52208;SDS011;38507;53.132;6.394;2023-06-14T14:21:49;7.95;;;1.67;;
52208;SDS011;38507;53.132;6.394;2023-06-14T14:24:15;3.50;;;1.25;;
52208;SDS011;38507;53.132;6.394;2023-06-14T14:26:41;6.90;;;2.55;;
52208;SDS011;38507;53.132;6.394;2023-06-14T14:29:07;2.95;;;1.20;;
52208;SDS011;38507;53.132;6.394;2023-06-14T14:31:33;4.55;;;1.20;;
52208;SDS011;38507;53.132;6.394;2023-06-14T14:33:59;5.50;;;1.40;;
52208;SDS011;38507;53.132;6.394;2023-06-14T14:36:25;3.72;;;1.60;;
52208;SDS011;38507;53.132;6.394;2023-06-14T14:38:51;5.90;;;1.45;;
52208;SDS011;38507;53.132;6.394;2023-06-14T14:41:17;6.15;;;1.27;;
52208;SDS011;38507;53.132;6.394;2023-06-14T14:43:42;7.85;;;1.23;;
52208;SDS011;38507;53.132;6.394;2023-06-14T14:46:08;7.25;;;1.30;;
52208;SDS011;38507;53.132;6.394;2023-06-14T14:48:34;5.47;;;1.13;;
52208;SDS011;38507;53.132;6.394;2023-06-14T14:51:00;5.40;;;1.30;;
52208;SDS011;38507;53.132;6.394;2023-06-14T14:53:25;5.00;;;1.10;;
52208;SDS011;38507;53.132;6.394;2023-06-14T14:55:51;3.22;;;1.15;;
52208;SDS011;38507;53.132;6.394;2023-06-14T14:58:17;6.13;;;1.42;;
52208;SDS011;38507;53.132;6.394;2023-06-14T15:00:44;2.15;;;1.10;;
52208;SDS011;38507;53.132;6.394;2023-06-14T15:03:10;5.03;;;1.10;;